Flagstaff, AZ

5:37 PM MST on September 02, 2014 (GMT -0700)
Bow and Arrow | Change Station
CLOSE
Current Station
Personal Weather Station
Location: Flagstaff, AZ
Elevation: 6900 ft
Nearby Weather Stations

Elev 6900 ft 35.16 °N, 111.66 °W | Updated 24 seconds ago

Clear
Clear
79.0 °F
Feels Like 79 °F
N
3.1
Wind Variable Wind from WNW
Gusts 6.3 mph

Today
High -- | Low -- °F
--% Chance of Precip.
Yesterday
High -- | Low -- °F
Precip. -- in
5:59 AM 6:51 PM
First Quarter, 56% visible
Pressure 29.91 in
Visibility 10.0 miles
Clouds Clear
Heat Index 79 °F
Dew Point 45 °F
Humidity 30%
Rainfall 0.00 in
Snow Depth Not available.
UV 2 out of 12
Pollen 6.90 out of 12
Air Quality Not available.
Flu Activity Not available.
METAR KFLG 022357Z AUTO 21009G16KT 10SM CLR 25/02 A3019 RMK AO2 SLP128 T02500022 10267 20239 56016 TSNO

More Conditions Fewer Conditions

Pressure 29.91 in
Visibility 10.0 miles
Clouds Clear
Heat Index 79 °F
Dew Point 45 °F
Humidity 30%
Rainfall 0.00 in
Snow Depth Not available.
UV 2 out of 12
Pollen 6.90 out of 12
Air Quality Not available.
Flu Activity Not available.
METAR KFLG 022357Z AUTO 21009G16KT 10SM CLR 25/02 A3019 RMK AO2 SLP128 T02500022 10267 20239 56016 TSNO

More Conditions Fewer Conditions

10-Day Weather Forecast

Almanac

Astronomy

Sep. 02, 2014 Rise Set
Actual Time 5:59 AM MST 6:51 PM MST
Civil Twilight 5:34 AM MST 7:17 PM MST
Nautical Twilight 5:03 AM MST 7:48 PM MST
Astronomical Twilight 4:31 AM MST 8:19 PM MST
Moon 1:31 PM MST (9/2) No Moon Set
Length of Visible Light 13h 43m
Length of Day
12h 51m
Tomorrow will be 2m 7s shorter.
First Quarter, 56% of the Moon is Illuminated
Today
First Quarter
Sep 8
Full
Sep 15
Last Quarter
Sep 24
New
Oct 1
First Quarter

Today's Extremes

State Highs State Lows

Community

WunderPhotos

Upload Photos

1,749,812 photos uploaded!

Nearby

Snow Depth

Station Depth Elevation
Workman Creek 0 in 6900 ft

Earthquake Activity

City Distance Mag. Time & Date
No recent earthquake activity has been reported nearby.
Minimum magnitude displayed is 2.5.

Coastal Water Temperatures

Place Temperature
No Stations Reporting

Nearby Weather Stations